메인 페이지
METAR-TAF:

METAR-TAF

공항 :

더블린 공항

더블린, 아일랜드

위도: 53-26N, 경도: 006-15W, 고도: 68m

현재 날씨관측

예보는 12분 전, 09:30시(UTC)에 발표되었습니다.
남동9kt
온도 14°C
습도 82%
기압 1018 hPa
시정 10km 이상
고도 3500ft 상공 구름 보통
고도 5000ft 상공 구름 많음
고도 12000ft 상공 구름 많음

METAR: EIDW 200930Z 14009KT 9999 SCT035 BKN050 BKN120 14/11 Q1018 NOSIG

시각: 10:42 (09:42 UTC)

예보

예보는 4 시간 42분 전, 05:00시(UTC)에 발표되었습니다.
예보 대상 시간: 20일 06시부터 21일 06시까지 (UTC)
8kt
시정 10km 이상
고도 1800ft 상공 구름 조금
고도 4000ft 상공 구름 보통
전환 중
20일 09시부터 20일 12시까지 (UTC)
남남동10kt
전환 중
20일 19시부터 20일 22시까지 (UTC)
남남동4kt
일시적
20일 19시부터 21일 06시까지 (UTC)
시정: 3000m
고도 500ft 상공 구름 보통
고도 1000ft 상공 구름 많음
약한비, 박무

TAF: EIDW 200500Z 2006/2106 18008KT 9999 FEW018 SCT040 BECMG 2009/2012 15010KT BECMG 2019/2022 16004KT TEMPO 2019/2106 3000 -RA BR SCT005 BKN010

4,000개 이상의 공항 관측 자료 및 예보 (METAR 및 TAF 보고).

지도상에서 검색 가능한 기상관측소가 노란 점과 빨간 점으로 표시되어 있습니다.

기상관측소 명을 보려면 표시 위로 마우스를 이동하세요.

날씨 관측과 예보를 보려면 클릭하세요.

지도 변경 : 확대하려면 엑스 표시가 있는 녹색 버튼, 축소하려면 빼기 표시가 있는 녹색 버튼, 다음 페이지의 지도를 보려면 녹색 화살표를 클릭하세요.


METAR-TAF: